Time;durP1;ratioP1;P1;durP2;ratioP2;P2;SDS_P1;SDS_P2;PMS_P1;PMS_P2;Temp;Humidity;BMP_temperature;BMP_pressure;BME280_temperature;BME280_humidity;BME280_pressure;Samples;Min_cycle;Max_cycle;Signal;HPM_P1;HPM_P2
2022/03/04 00:00:41;;;;;;;33.15;18.83;;;;;;;0.80;nan;99494.53;4990763;28;20191;-91
2022/03/04 00:03:10;;;;;;;29.10;21.20;;;;;;;0.76;nan;99490.34;4975646;28;20212;-91
2022/03/04 00:05:51;;;;;;;;;;;;;;;;;;;;;
2022/03/04 00:08:28;;;;;;;;;;;;;;;;;;;;;
2022/03/04 00:11:18;;;;;;;;;;;;;;;;;;;;;
2022/03/04 00:13:50;;;;;;;34.90;23.08;;;;;;;0.56;nan;99502.00;4981575;28;20306;-89
2022/03/04 00:16:16;;;;;;;37.45;19.92;;;;;;;0.53;nan;99506.41;4964472;28;20207;-89
2022/03/04 00:19:06;;;;;;;31.50;23.40;;;;;;;0.52;nan;99505.56;4980959;28;20682;-89
2022/03/04 00:21:34;;;;;;;28.10;20.60;;;;;;;0.40;nan;99498.09;4989050;28;20561;-90
2022/03/04 00:24:13;;;;;;;34.60;20.30;;;;;;;0.33;nan;99500.00;4968927;28;20207;-89
2022/03/04 00:26:39;;;;;;;34.60;23.25;;;;;;;0.33;nan;99504.31;4986538;28;20226;-88
2022/03/04 00:29:06;;;;;;;37.45;22.92;;;;;;;0.32;nan;99512.94;4986568;28;20208;-89
2022/03/04 00:31:51;;;;;;;35.00;23.63;;;;;;;0.30;nan;99509.53;4968365;28;20524;-89
2022/03/04 00:34:17;;;;;;;37.63;23.25;;;;;;;0.28;nan;99509.59;4993293;28;20734;-88
2022/03/04 00:36:52;;;;;;;43.55;23.38;;;;;;;0.26;nan;99518.25;4996353;28;20195;-88
2022/03/04 00:39:23;;;;;;;28.48;21.15;;;;;;;0.26;nan;99513.94;4992108;28;20195;-89
2022/03/04 00:41:49;;;;;;;34.45;19.95;;;;;;;0.24;nan;99520.03;4993071;28;20200;-89
2022/03/04 00:44:38;;;;;;;35.13;21.60;;;;;;;0.20;nan;99525.25;4991522;28;20214;-90
2022/03/04 00:47:08;;;;;;;32.65;21.50;;;;;;;0.17;nan;99522.75;4992342;28;20256;-88
2022/03/04 00:49:56;;;;;;;31.05;21.23;;;;;;;0.10;nan;99526.34;4978281;28;20210;-90
2022/03/04 00:52:35;;;;;;;31.35;20.77;;;;;;;-0.02;nan;99530.06;4997179;28;20210;-90
2022/03/04 00:55:12;;;;;;;27.67;20.55;;;;;;;-0.09;nan;99527.63;4994777;28;20271;-90
2022/03/04 00:58:06;;;;;;;35.47;21.45;;;;;;;-0.07;nan;99537.06;4993403;28;20223;-89
2022/03/04 01:00:41;;;;;;;36.08;19.92;;;;;;;-0.11;nan;99517.34;4994416;28;20209;-90
2022/03/04 01:03:27;;;;;;;35.03;24.15;;;;;;;-0.09;nan;99522.47;4996115;28;20487;-91
2022/03/04 01:06:38;;;;;;;34.35;25.17;;;;;;;-0.14;nan;99534.63;4996487;28;20231;-90
2022/03/04 01:09:50;;;;;;;26.63;18.25;;;;;;;-0.23;nan;99531.34;4999493;28;20236;-91
2022/03/04 01:13:23;;;;;;;25.88;17.52;;;;;;;-0.34;nan;99533.31;4984085;28;20283;-88
2022/03/04 01:16:02;;;;;;;29.50;16.67;;;;;;;-0.49;nan;99520.72;5004017;28;20243;-91
2022/03/04 01:19:48;;;;;;;;;;;;;;;;;;;;;
2022/03/04 01:22:34;;;;;;;;;;;;;;;;;;;;;
2022/03/04 01:25:52;;;;;;;;;;;;;;;;;;;;;
2022/03/04 01:28:27;;;;;;;27.20;18.65;;;;;;;-0.43;nan;99527.47;5006452;28;20199;-90
2022/03/04 01:31:29;;;;;;;28.95;18.30;;;;;;;-0.45;nan;99520.63;5003340;28;20481;-91
2022/03/04 01:34:31;;;;;;;24.52;16.55;;;;;;;-0.43;nan;99522.31;5003385;28;20247;-91
2022/03/04 01:37:17;;;;;;;;;;;;;;;;;;;;;
2022/03/04 01:40:26;;;;;;;;;;;;;;;;;;;;;
2022/03/04 01:43:15;;;;;;;28.55;18.73;;;;;;;-0.41;nan;99520.56;5005026;28;20385;-91
2022/03/04 01:50:28;;;;;;;34.00;20.45;;;;;;;-0.38;nan;99521.34;5001218;28;20235;-91
2022/03/04 01:53:29;;;;;;;26.52;17.58;;;;;;;-0.38;nan;99521.34;4959808;28;20203;-90
2022/03/04 01:56:14;;;;;;;;;;;;;;;;;;;;;
2022/03/04 02:00:00;;;;;;;;;;;;;;;;;;;;;
2022/03/04 02:04:22;;;;;;;;;;;;;;;;;;;;;
2022/03/04 02:07:16;;;;;;;25.63;17.00;;;;;;;-0.55;nan;99520.84;4903843;29;20237;-91
2022/03/04 02:10:29;;;;;;;28.83;16.50;;;;;;;-0.64;nan;99524.47;4953145;28;20219;-91
2022/03/04 02:13:14;;;;;;;22.23;14.65;;;;;;;-0.69;nan;99515.97;4989662;23;20239;-74
2022/03/04 02:15:42;;;;;;;25.90;18.17;;;;;;;-0.78;nan;99521.31;5013643;28;20904;-76
2022/03/04 02:18:13;;;;;;;20.33;15.90;;;;;;;-0.87;nan;99521.47;5015927;28;20206;-74
2022/03/04 02:20:42;;;;;;;24.00;15.90;;;;;;;-0.95;nan;99522.44;5015074;28;20234;-74
2022/03/04 02:23:12;;;;;;;30.73;19.88;;;;;;;-1.00;nan;99520.81;5013673;28;20211;-76
2022/03/04 02:25:38;;;;;;;26.40;17.80;;;;;;;-1.04;nan;99522.63;5015035;28;20227;-75
2022/03/04 02:28:03;;;;;;;29.17;19.00;;;;;;;-1.06;nan;99519.22;5013885;28;20451;-75
2022/03/04 02:30:29;;;;;;;24.53;18.67;;;;;;;-1.05;nan;99507.16;5013644;28;20218;-76
2022/03/04 02:32:54;;;;;;;37.13;23.35;;;;;;;-1.04;nan;99499.41;4993935;28;20483;-76
2022/03/04 02:35:19;;;;;;;30.53;21.43;;;;;;;-1.02;nan;99502.81;4995458;28;20646;-75
2022/03/04 02:37:45;;;;;;;26.73;18.90;;;;;;;-1.03;nan;99502.84;5014201;28;20219;-75
2022/03/04 02:40:11;;;;;;;34.30;21.83;;;;;;;-1.05;nan;99513.19;5013225;28;20260;-73
2022/03/04 02:42:37;;;;;;;27.40;18.25;;;;;;;-1.03;nan;99514.00;5011333;28;20729;-74
2022/03/04 02:45:03;;;;;;;27.77;18.50;;;;;;;-1.03;nan;99514.00;5011003;28;20202;-73
2022/03/04 02:47:28;;;;;;;35.08;21.52;;;;;;;-1.06;nan;99514.06;5011306;28;20218;-75
2022/03/04 02:49:53;;;;;;;26.30;17.07;;;;;;;-1.07;nan;99514.09;5013883;28;20206;-75
2022/03/04 02:52:19;;;;;;;30.87;18.73;;;;;;;-1.12;nan;99503.88;5013608;28;20206;-74
2022/03/04 02:54:44;;;;;;;22.53;16.47;;;;;;;-1.18;nan;99507.41;5013452;28;20227;-74
2022/03/04 02:57:10;;;;;;;28.07;17.07;;;;;;;-1.22;nan;99507.47;5013494;28;20237;-73
2022/03/04 02:59:35;;;;;;;25.83;16.87;;;;;;;-1.31;nan;99500.75;5013905;28;20210;-75
2022/03/04 03:02:00;;;;;;;31.67;22.63;;;;;;;-1.33;nan;99507.66;5013063;28;20489;-75
2022/03/04 03:04:26;;;;;;;28.23;17.33;;;;;;;-1.37;nan;99506.88;4996111;28;20773;-75
2022/03/04 03:06:52;;;;;;;26.37;19.10;;;;;;;-1.39;nan;99512.91;5013123;28;20257;-76
2022/03/04 03:09:17;;;;;;;26.40;20.10;;;;;;;-1.38;nan;99509.47;5012371;28;20312;-73
2022/03/04 03:11:43;;;;;;;26.80;18.60;;;;;;;-1.36;nan;99508.56;5012829;28;20194;-73
2022/03/04 03:14:08;;;;;;;28.67;18.60;;;;;;;-1.34;nan;99513.69;5012774;28;20706;-74
2022/03/04 03:16:33;;;;;;;26.33;17.57;;;;;;;-1.37;nan;99513.75;5012169;28;20317;-74
2022/03/04 03:18:59;;;;;;;26.17;16.93;;;;;;;-1.42;nan;99512.97;5012570;28;20591;-74
2022/03/04 03:21:24;;;;;;;32.33;20.70;;;;;;;-1.46;nan;99519.91;5012520;28;20215;-74
2022/03/04 03:23:51;;;;;;;24.60;16.52;;;;;;;-1.54;nan;99523.47;5010133;28;20943;-74
2022/03/04 03:26:17;;;;;;;25.87;16.73;;;;;;;-1.59;nan;99523.56;5012232;28;20329;-74
2022/03/04 03:28:42;;;;;;;28.40;18.20;;;;;;;-1.65;nan;99524.47;5011642;28;20210;-72
2022/03/04 03:31:08;;;;;;;35.30;19.65;;;;;;;-1.69;nan;99522.00;5012526;28;20489;-74
2022/03/04 03:33:36;;;;;;;30.50;17.87;;;;;;;-1.75;nan;99528.09;5009119;28;20224;-74
2022/03/04 03:36:02;;;;;;;30.27;18.55;;;;;;;-1.79;nan;99529.00;5007714;28;20230;-74
2022/03/04 03:38:27;;;;;;;25.47;16.37;;;;;;;-1.82;nan;99534.19;5012742;28;20213;-75
2022/03/04 03:40:52;;;;;;;38.23;22.80;;;;;;;-1.81;nan;99535.88;5012633;28;20202;-76
2022/03/04 03:43:18;;;;;;;28.77;17.60;;;;;;;-1.80;nan;99542.75;4994241;28;20203;-75
2022/03/04 03:45:43;;;;;;;34.63;18.27;;;;;;;-1.84;nan;99536.78;5010317;28;20226;-75
2022/03/04 03:48:09;;;;;;;27.23;17.30;;;;;;;-1.82;nan;99535.03;5012301;28;20575;-75
2022/03/04 03:50:36;;;;;;;26.35;18.35;;;;;;;-1.79;nan;99537.56;5012963;28;20249;-75
2022/03/04 03:53:02;;;;;;;33.72;18.45;;;;;;;-1.76;nan;99531.50;5013924;28;20233;-75
2022/03/04 03:55:27;;;;;;;30.37;17.90;;;;;;;-1.74;nan;99531.50;5015981;28;20683;-75
2022/03/04 03:57:53;;;;;;;30.17;18.50;;;;;;;-1.73;nan;99528.88;5014914;28;20198;-75
2022/03/04 04:00:18;;;;;;;21.40;16.80;;;;;;;-1.72;nan;99524.63;5016504;28;20600;-75
2022/03/04 04:02:43;;;;;;;38.47;25.55;;;;;;;-1.72;nan;99528.03;5014652;28;20489;-75
2022/03/04 04:05:12;;;;;;;37.23;22.70;;;;;;;-1.78;nan;99533.28;5016959;28;20215;-75
2022/03/04 04:07:38;;;;;;;26.63;19.63;;;;;;;-1.81;nan;99534.19;5011881;28;20207;-75
2022/03/04 04:10:04;;;;;;;32.47;21.27;;;;;;;-1.84;nan;99535.94;5015232;28;20234;-75
2022/03/04 04:12:30;;;;;;;27.52;20.45;;;;;;;-1.90;nan;99536.03;5013111;28;20246;-75
2022/03/04 04:14:55;;;;;;;26.90;17.77;;;;;;;-1.89;nan;99537.72;5016003;28;20233;-75
2022/03/04 04:17:21;;;;;;;31.13;19.17;;;;;;;-1.91;nan;99536.91;5014923;28;20211;-75
2022/03/04 04:19:46;;;;;;;32.97;20.10;;;;;;;-1.91;nan;99539.47;5013666;28;20218;-75
2022/03/04 04:22:12;;;;;;;22.53;16.77;;;;;;;-1.93;nan;99546.38;5016226;28;20733;-76
2022/03/04 04:24:37;;;;;;;31.30;18.77;;;;;;;-2.01;nan;99549.03;4993693;28;20234;-75
2022/03/04 04:27:02;;;;;;;31.77;18.50;;;;;;;-2.09;nan;99549.13;4996550;28;20281;-75
2022/03/04 04:29:29;;;;;;;29.80;17.23;;;;;;;-2.13;nan;99547.50;4996042;28;20530;-75
2022/03/04 04:31:54;;;;;;;33.40;21.83;;;;;;;-2.12;nan;99550.91;4994137;28;20515;-75
2022/03/04 04:34:20;;;;;;;30.10;19.60;;;;;;;-2.17;nan;99550.97;4995809;28;20265;-75
2022/03/04 04:36:45;;;;;;;24.10;18.13;;;;;;;-2.16;nan;99555.25;4995986;28;20583;-75
2022/03/04 04:39:11;;;;;;;30.50;18.50;;;;;;;-2.16;nan;99555.25;4997340;28;21222;-75
2022/03/04 04:41:36;;;;;;;24.47;18.63;;;;;;;-2.15;nan;99556.09;4996428;28;20211;-74
2022/03/04 04:44:02;;;;;;;35.77;21.40;;;;;;;-2.14;nan;99558.63;4997209;28;20623;-75
2022/03/04 04:46:28;;;;;;;29.27;18.80;;;;;;;-2.11;nan;99565.47;5019199;23;20318;-75
2022/03/04 04:48:54;;;;;;;28.50;17.97;;;;;;;-2.12;nan;99564.63;5020358;28;20249;-75
2022/03/04 04:51:19;;;;;;;30.97;18.20;;;;;;;-2.18;nan;99562.13;5032220;28;20285;-75
2022/03/04 04:53:44;;;;;;;30.77;17.67;;;;;;;-2.23;nan;99563.91;5017080;28;20209;-75
2022/03/04 04:56:10;;;;;;;33.43;19.90;;;;;;;-2.24;nan;99563.06;5031773;28;20265;-75
2022/03/04 04:58:35;;;;;;;33.07;21.67;;;;;;;-2.23;nan;99563.91;5025341;28;20202;-75
2022/03/04 05:01:01;;;;;;;31.87;19.70;;;;;;;-2.20;nan;99557.88;5026155;28;20135;-75
2022/03/04 05:03:27;;;;;;;40.17;21.30;;;;;;;-2.20;nan;99566.44;5025530;28;20449;-75
2022/03/04 05:05:53;;;;;;;31.30;19.30;;;;;;;-2.20;nan;99563.88;5025765;28;20236;-75
2022/03/04 05:08:19;;;;;;;29.27;19.25;;;;;;;-2.19;nan;99560.41;5025761;28;20293;-74
2022/03/04 05:10:45;;;;;;;38.33;20.60;;;;;;;-2.15;nan;99569.81;5024989;28;20225;-73
2022/03/04 05:13:11;;;;;;;35.20;19.07;;;;;;;-2.17;nan;99568.97;5025532;28;20671;-74
2022/03/04 05:15:37;;;;;;;36.50;21.77;;;;;;;-2.16;nan;99572.38;5025287;28;21395;-74
2022/03/04 05:18:02;;;;;;;31.13;20.53;;;;;;;-2.14;nan;99566.34;5025158;28;20786;-74
2022/03/04 05:20:28;;;;;;;27.87;18.70;;;;;;;-2.16;nan;99568.13;5025227;28;20226;-74
2022/03/04 05:22:53;;;;;;;33.33;18.17;;;;;;;-2.17;nan;99562.97;5024416;28;20213;-74
2022/03/04 05:25:19;;;;;;;31.10;18.40;;;;;;;-2.24;nan;99575.09;5025361;28;20520;-75
2022/03/04 05:27:45;;;;;;;27.87;16.63;;;;;;;-2.31;nan;99583.75;5021300;28;20604;-74
2022/03/04 05:30:11;;;;;;;37.70;20.42;;;;;;;-2.37;nan;99581.25;5024501;28;20281;-75
2022/03/04 05:32:36;;;;;;;38.60;26.10;;;;;;;-2.37;nan;99586.38;5023481;28;20893;-75
2022/03/04 05:35:03;;;;;;;27.67;20.60;;;;;;;-2.43;nan;99589.00;5023245;28;20545;-75
2022/03/04 05:37:28;;;;;;;33.00;20.98;;;;;;;-2.48;nan;99589.09;5023626;28;20781;-75
2022/03/04 05:39:54;;;;;;;33.60;19.63;;;;;;;-2.49;nan;99595.06;5023752;28;20289;-75
2022/03/04 05:42:19;;;;;;;25.83;17.40;;;;;;;-2.53;nan;99596.84;5023870;28;20233;-74
2022/03/04 05:44:45;;;;;;;30.40;19.87;;;;;;;-2.53;nan;99603.72;5024782;28;20674;-75
2022/03/04 05:47:11;;;;;;;27.60;18.60;;;;;;;-2.51;nan;99604.50;5006163;28;20226;-75
2022/03/04 05:49:37;;;;;;;30.70;18.93;;;;;;;-2.51;nan;99601.94;5007374;28;20670;-75
2022/03/04 05:52:03;;;;;;;29.20;17.17;;;;;;;-2.50;nan;99612.22;5023544;28;20544;-75
2022/03/04 05:54:29;;;;;;;26.83;16.65;;;;;;;-2.52;nan;99607.97;5025089;28;20504;-75
2022/03/04 05:56:54;;;;;;;30.10;17.30;;;;;;;-2.57;nan;99610.56;5024303;28;20237;-75
2022/03/04 05:59:20;;;;;;;34.43;20.10;;;;;;;-2.59;nan;99614.91;5021733;28;20488;-75
2022/03/04 06:01:46;;;;;;;27.50;18.60;;;;;;;-2.60;nan;99610.63;5023555;28;20925;-75
2022/03/04 06:04:11;;;;;;;26.20;17.73;;;;;;;-2.61;nan;99613.22;5023435;28;21045;-74
2022/03/04 06:06:37;;;;;;;25.93;16.53;;;;;;;-2.62;nan;99621.78;5024228;28;20275;-74
2022/03/04 06:09:02;;;;;;;29.37;17.63;;;;;;;-2.66;nan;99626.13;5021384;28;20206;-74
2022/03/04 06:11:28;;;;;;;31.87;20.17;;;;;;;-2.67;nan;99620.13;5023386;28;20214;-74
2022/03/04 06:13:53;;;;;;;33.30;20.50;;;;;;;-2.68;nan;99623.53;5022881;28;20205;-75
2022/03/04 06:16:20;;;;;;;26.30;18.83;;;;;;;-2.68;nan;99626.13;5022951;28;20244;-75
2022/03/04 06:18:46;;;;;;;32.38;19.95;;;;;;;-2.67;nan;99630.41;5024314;28;20258;-75
2022/03/04 06:21:11;;;;;;;26.02;19.23;;;;;;;-2.70;nan;99629.56;5024941;28;20214;-74
2022/03/04 06:23:37;;;;;;;33.23;20.07;;;;;;;-2.69;nan;99631.28;5020522;28;20197;-74
2022/03/04 06:26:02;;;;;;;23.70;17.07;;;;;;;-2.66;nan;99644.09;5014766;28;20629;-75
2022/03/04 06:28:27;;;;;;;27.17;18.70;;;;;;;-2.64;nan;99644.09;5018183;28;20220;-75
2022/03/04 06:30:54;;;;;;;31.50;19.97;;;;;;;-2.59;nan;99650.03;5020243;28;20206;-74
2022/03/04 06:33:32;;;;;;;29.73;18.45;;;;;;;-2.56;nan;99647.47;5019774;28;20279;-74
2022/03/04 06:36:21;;;;;;;31.08;18.27;;;;;;;-2.54;nan;99650.84;5018402;28;20712;-75
2022/03/04 06:38:46;;;;;;;29.90;17.10;;;;;;;-2.56;nan;99656.03;5016390;28;20225;-75
2022/03/04 06:41:14;;;;;;;27.20;15.90;;;;;;;-2.56;nan;99657.75;5020740;28;20511;-75
2022/03/04 06:43:40;;;;;;;29.67;17.25;;;;;;;-2.56;nan;99662.88;5017419;28;20677;-74
2022/03/04 06:46:06;;;;;;;32.80;17.00;;;;;;;-2.55;nan;99656.88;5014246;28;20237;-74
2022/03/04 06:48:33;;;;;;;28.13;16.92;;;;;;;-2.49;nan;99664.50;5017514;28;20724;-74
2022/03/04 06:50:59;;;;;;;32.45;19.63;;;;;;;-2.42;nan;99667.88;5016896;28;20237;-75
2022/03/04 06:53:24;;;;;;;25.90;15.80;;;;;;;-2.34;nan;99666.09;5018204;28;20631;-75
2022/03/04 06:55:50;;;;;;;29.63;15.73;;;;;;;-2.27;nan;99662.56;5016213;28;20265;-75
2022/03/04 06:58:17;;;;;;;19.67;15.40;;;;;;;-2.20;nan;99669.38;5015930;28;20479;-74
2022/03/04 07:00:43;;;;;;;22.60;15.30;;;;;;;-2.14;nan;99679.56;5017185;28;20452;-74
2022/03/04 07:03:09;;;;;;;28.50;16.33;;;;;;;-2.05;nan;99683.81;5015969;28;20216;-74
2022/03/04 07:05:35;;;;;;;24.35;15.07;;;;;;;-1.97;nan;99686.25;5015137;28;20775;-74
2022/03/04 07:08:01;;;;;;;17.13;10.85;;;;;;;-1.90;nan;99680.19;5016511;28;20271;-74
2022/03/04 07:10:26;;;;;;;20.80;12.97;;;;;;;-1.81;nan;99687.78;5016039;28;20205;-75
2022/03/04 07:12:52;;;;;;;18.90;13.65;;;;;;;-1.72;nan;99685.13;5017617;28;20292;-75
2022/03/04 07:15:19;;;;;;;26.33;14.40;;;;;;;-1.63;nan;99684.13;5016636;28;20228;-75
2022/03/04 07:17:48;;;;;;;18.48;14.38;;;;;;;-1.56;nan;99686.63;5017464;28;20285;-74
2022/03/04 07:20:13;;;;;;;26.63;14.25;;;;;;;-1.49;nan;99682.22;5000277;28;20210;-74
2022/03/04 07:22:39;;;;;;;32.63;16.17;;;;;;;-1.41;nan;99695.00;5016915;28;20235;-75
2022/03/04 07:25:10;;;;;;;21.77;13.10;;;;;;;-1.32;nan;99700.06;5018011;28;20483;-74
2022/03/04 07:27:36;;;;;;;21.33;14.23;;;;;;;-1.25;nan;99701.66;5016247;28;20218;-75
2022/03/04 07:30:06;;;;;;;22.25;12.85;;;;;;;-1.17;nan;99698.97;5016530;28;20340;-75
2022/03/04 07:32:32;;;;;;;16.55;11.45;;;;;;;-1.12;nan;99698.03;5017381;28;20280;-75
2022/03/04 07:34:58;;;;;;;21.87;13.60;;;;;;;-1.05;nan;99697.91;5015635;28;20305;-74
2022/03/04 07:37:23;;;;;;;25.02;15.60;;;;;;;-0.98;nan;99700.38;5017126;28;20265;-76
2022/03/04 07:39:49;;;;;;;19.90;13.00;;;;;;;-0.92;nan;99700.31;5017492;28;20249;-76
2022/03/04 07:42:15;;;;;;;22.58;15.52;;;;;;;-0.86;nan;99698.50;5016407;28;20658;-76
2022/03/04 07:44:50;;;;;;;23.25;14.82;;;;;;;-0.80;nan;99693.25;4999405;28;20563;-78
2022/03/04 07:47:15;;;;;;;20.75;14.82;;;;;;;-0.74;nan;99698.31;5017704;28;20254;-77
2022/03/04 07:49:43;;;;;;;24.47;15.87;;;;;;;-0.68;nan;99699.03;5015250;28;20194;-74
2022/03/04 07:52:09;;;;;;;25.98;15.55;;;;;;;-0.59;nan;99697.22;5016416;28;20210;-77
2022/03/04 07:54:35;;;;;;;22.02;14.80;;;;;;;-0.53;nan;99695.38;4987632;28;20234;-74
2022/03/04 07:57:01;;;;;;;28.73;16.27;;;;;;;-0.46;nan;99698.69;4978498;28;20759;-74
2022/03/04 07:59:26;;;;;;;24.73;16.50;;;;;;;-0.38;nan;99701.13;4997619;28;21125;-76
2022/03/04 08:01:51;;;;;;;24.50;17.17;;;;;;;-0.28;nan;99700.09;4996571;28;21091;-75
2022/03/04 08:04:17;;;;;;;20.50;17.40;;;;;;;-0.21;nan;99698.28;4995830;28;20482;-75
2022/03/04 08:06:42;;;;;;;22.07;13.77;;;;;;;-0.14;nan;99698.13;4998303;28;20762;-75
2022/03/04 08:09:08;;;;;;;22.33;16.57;;;;;;;-0.07;nan;99696.28;4995552;28;20241;-75
2022/03/04 08:11:34;;;;;;;24.02;16.23;;;;;;;-0.02;nan;99697.91;4997421;28;20207;-78
2022/03/04 08:14:00;;;;;;;21.30;15.53;;;;;;;0.03;nan;99696.94;4996394;28;20214;-75
2022/03/04 08:16:29;;;;;;;26.17;16.27;;;;;;;0.07;nan;99699.44;4993265;28;20251;-77
2022/03/04 08:18:55;;;;;;;21.17;16.65;;;;;;;0.11;nan;99711.44;4997241;28;20199;-75
2022/03/04 08:21:20;;;;;;;23.08;16.13;;;;;;;0.14;nan;99706.19;4997356;28;20603;-76
2022/03/04 08:23:46;;;;;;;29.08;15.95;;;;;;;0.20;nan;99705.22;4977715;28;20199;-75
2022/03/04 08:26:12;;;;;;;23.80;18.10;;;;;;;0.36;nan;99710.94;4980588;28;20305;-77
2022/03/04 08:28:38;;;;;;;23.80;15.70;;;;;;;0.96;nan;99707.91;4997817;28;20217;-75
2022/03/04 08:31:10;;;;;;;23.48;15.65;;;;;;;2.07;nan;99699.97;4997451;28;20461;-75
2022/03/04 08:33:43;;;;;;;21.02;15.93;;;;;;;3.25;nan;99694.69;4997164;28;20654;-75
2022/03/04 08:36:09;;;;;;;20.83;15.10;;;;;;;4.26;nan;99692.13;4977864;28;20219;-75
2022/03/04 08:38:35;;;;;;;21.60;14.88;;;;;;;5.24;nan;99686.59;4998952;28;20282;-77
2022/03/04 08:41:00;;;;;;;21.97;16.90;;;;;;;6.06;nan;99678.84;5000976;28;20219;-76
2022/03/04 08:43:26;;;;;;;21.90;15.23;;;;;;;6.75;nan;99683.56;5001748;28;20465;-75
2022/03/04 08:45:52;;;;;;;19.37;14.33;;;;;;;7.32;nan;99688.69;4997402;28;20241;-78
2022/03/04 08:48:17;;;;;;;20.27;15.43;;;;;;;7.79;nan;99682.00;5000880;28;20552;-76
2022/03/04 08:50:43;;;;;;;23.27;16.20;;;;;;;8.21;nan;99684.16;5001073;28;21055;-76
2022/03/04 08:53:08;;;;;;;22.10;16.33;;;;;;;8.62;nan;99686.38;5002340;28;20194;-76
2022/03/04 08:55:34;;;;;;;18.03;14.20;;;;;;;9.05;nan;99689.25;5000011;28;20253;-78
2022/03/04 08:58:00;;;;;;;19.50;14.67;;;;;;;9.27;nan;99692.31;5000956;28;20564;-79
2022/03/04 09:00:29;;;;;;;19.85;16.83;;;;;;;9.35;nan;99691.06;5001727;28;20245;-75
2022/03/04 09:02:55;;;;;;;20.15;15.23;;;;;;;9.37;nan;99682.19;5001669;28;20580;-77
2022/03/04 09:05:21;;;;;;;27.38;14.98;;;;;;;9.77;nan;99686.84;5001849;28;20402;-78
2022/03/04 09:07:47;;;;;;;20.80;16.50;;;;;;;10.23;nan;99684.94;5002596;28;20280;-76
2022/03/04 09:10:12;;;;;;;20.93;15.53;;;;;;;10.47;nan;99674.75;5000420;28;20211;-77
2022/03/04 09:12:38;;;;;;;23.50;17.50;;;;;;;10.34;nan;99677.31;5001714;28;20194;-78
2022/03/04 09:15:05;;;;;;;21.70;17.30;;;;;;;10.29;nan;99684.63;4981613;28;20221;-79
2022/03/04 09:17:30;;;;;;;18.45;14.55;;;;;;;10.42;nan;99668.94;5001309;28;20234;-78
2022/03/04 09:19:56;;;;;;;23.20;16.10;;;;;;;10.47;nan;99674.75;5000466;28;20580;-75
2022/03/04 09:22:21;;;;;;;21.60;17.03;;;;;;;10.33;nan;99672.13;4999721;28;20742;-76
2022/03/04 09:24:47;;;;;;;23.00;15.93;;;;;;;10.10;nan;99681.38;4998966;28;20623;-78
2022/03/04 09:27:12;;;;;;;20.67;16.00;;;;;;;10.15;nan;99687.19;4999901;28;20707;-73
2022/03/04 09:29:38;;;;;;;21.17;16.67;;;;;;;10.33;nan;99677.38;5000391;28;20297;-79
2022/03/04 09:32:04;;;;;;;23.73;18.40;;;;;;;10.66;nan;99674.44;5000229;28;20497;-76
2022/03/04 09:34:31;;;;;;;22.35;17.08;;;;;;;10.40;nan;99676.91;5001074;28;20757;-75
2022/03/04 09:36:56;;;;;;;17.60;14.40;;;;;;;10.13;nan;99681.22;5001235;28;20478;-77
2022/03/04 09:39:22;;;;;;;22.07;17.07;;;;;;;9.83;nan;99676.88;4998374;28;20218;-77
2022/03/04 09:41:47;;;;;;;20.47;15.90;;;;;;;9.70;nan;99678.53;4999192;28;20298;-76
2022/03/04 09:44:15;;;;;;;16.77;14.43;;;;;;;9.45;nan;99671.22;5000706;28;20880;-77
2022/03/04 09:46:43;;;;;;;16.20;13.30;;;;;;;9.12;nan;99685.31;5000786;28;20238;-79
2022/03/04 09:49:09;;;;;;;20.23;13.30;;;;;;;8.79;nan;99694.13;4999556;28;20707;-76
2022/03/04 09:51:35;;;;;;;23.33;14.75;;;;;;;8.38;nan;99696.34;5003466;28;20668;-75
2022/03/04 09:54:01;;;;;;;20.03;14.83;;;;;;;8.18;nan;99698.25;5001694;28;20215;-79
2022/03/04 09:56:28;;;;;;;22.83;16.75;;;;;;;7.83;nan;99696.59;5000635;28;20489;-75
2022/03/04 09:58:53;;;;;;;23.97;15.90;;;;;;;7.59;nan;99689.06;4998656;28;20222;-75
2022/03/04 10:01:19;;;;;;;18.67;15.07;;;;;;;7.51;nan;99696.47;4999223;28;20218;-79
2022/03/04 10:03:50;;;;;;;20.40;14.65;;;;;;;7.44;nan;99693.28;5000147;28;20205;-76
2022/03/04 10:06:17;;;;;;;18.58;14.93;;;;;;;7.37;nan;99688.44;5000142;28;20572;-77
2022/03/04 10:08:46;;;;;;;20.08;15.30;;;;;;;7.37;nan;99689.31;4999830;28;20281;-77
2022/03/04 10:11:13;;;;;;;20.95;14.30;;;;;;;7.31;nan;99690.41;5001431;28;20203;-75
2022/03/04 10:13:47;;;;;;;21.65;14.82;;;;;;;7.26;nan;99681.97;4999424;28;20202;-77
2022/03/04 10:16:22;;;;;;;21.85;16.27;;;;;;;7.18;nan;99680.63;4980391;28;20325;-76
2022/03/04 10:19:13;;;;;;;21.73;14.60;;;;;;;6.99;nan;99678.91;5000334;28;20729;-75
2022/03/04 10:21:55;;;;;;;22.95;14.95;;;;;;;6.79;nan;99682.47;4998765;28;20226;-75
2022/03/04 10:24:35;;;;;;;20.90;15.60;;;;;;;6.61;nan;99685.94;4997923;28;20207;-75
2022/03/04 10:27:10;;;;;;;20.63;14.13;;;;;;;6.58;nan;99679.09;4999506;28;20425;-75
2022/03/04 10:29:38;;;;;;;18.45;14.85;;;;;;;6.54;nan;99671.50;4998809;28;20225;-75
2022/03/04 10:32:13;;;;;;;22.50;16.90;;;;;;;6.74;nan;99681.00;4996659;28;20742;-75
2022/03/04 10:34:51;;;;;;;20.38;15.88;;;;;;;6.95;nan;99673.94;4998126;28;20210;-75
2022/03/04 10:37:23;;;;;;;18.83;13.40;;;;;;;7.04;nan;99666.47;4998048;28;20234;-75
2022/03/04 10:40:11;;;;;;;22.50;15.20;;;;;;;7.05;nan;99669.97;4979826;28;20198;-74
2022/03/04 10:42:43;;;;;;;22.08;15.60;;;;;;;7.08;nan;99668.03;4999044;28;20940;-75
2022/03/04 10:45:11;;;;;;;24.67;15.82;;;;;;;7.19;nan;99664.06;4996989;28;20203;-74
2022/03/04 10:47:49;;;;;;;28.20;17.40;;;;;;;7.23;nan;99668.22;4999635;28;20702;-75
2022/03/04 10:50:18;;;;;;;19.13;14.40;;;;;;;7.14;nan;99666.06;4983671;28;20198;-73
2022/03/04 10:52:51;;;;;;;22.60;18.30;;;;;;;7.18;nan;99667.59;4980973;28;20786;-74
2022/03/04 10:55:25;;;;;;;24.70;17.67;;;;;;;7.29;nan;99665.28;4998267;28;20251;-74
2022/03/04 10:57:51;;;;;;;18.10;14.88;;;;;;;7.32;nan;99659.94;4998726;28;20595;-74
2022/03/04 11:00:23;;;;;;;21.17;15.40;;;;;;;7.36;nan;99658.00;4999270;28;20258;-74
2022/03/04 11:02:49;;;;;;;20.13;13.77;;;;;;;7.41;nan;99650.78;5000003;28;20519;-73
2022/03/04 11:05:16;;;;;;;23.67;14.73;;;;;;;7.50;nan;99650.31;4998937;28;20261;-74
2022/03/04 11:07:43;;;;;;;18.02;14.30;;;;;;;7.57;nan;99643.88;5000444;28;20217;-74
2022/03/04 11:10:09;;;;;;;21.15;15.77;;;;;;;7.61;nan;99650.59;4980980;28;20247;-74
2022/03/04 11:12:35;;;;;;;17.55;13.70;;;;;;;7.67;nan;99645.09;4997266;28;20202;-74
2022/03/04 11:15:01;;;;;;;22.43;14.40;;;;;;;7.70;nan;99641.47;4998399;28;20596;-74
2022/03/04 11:17:28;;;;;;;22.10;15.40;;;;;;;7.74;nan;99643.00;4998807;28;20222;-74
2022/03/04 11:19:54;;;;;;;19.90;14.63;;;;;;;7.76;nan;99642.00;4997787;28;20198;-75
2022/03/04 11:22:19;;;;;;;22.30;15.10;;;;;;;7.85;nan;99637.22;4992701;28;20203;-74
2022/03/04 11:24:46;;;;;;;19.30;14.63;;;;;;;7.90;nan;99645.66;4997825;28;20484;-74
2022/03/04 11:27:14;;;;;;;19.15;13.30;;;;;;;7.90;nan;99638.66;4996748;28;20723;-74
2022/03/04 11:29:40;;;;;;;19.23;14.90;;;;;;;7.91;nan;99634.28;4997314;28;20206;-74
2022/03/04 11:32:06;;;;;;;20.47;15.70;;;;;;;7.88;nan;99634.44;4997250;28;20493;-73
2022/03/04 11:34:34;;;;;;;24.45;15.77;;;;;;;7.88;nan;99631.81;4997782;28;20591;-75
2022/03/04 11:37:03;;;;;;;22.77;14.00;;;;;;;7.91;nan;99624.69;4995971;28;20234;-75
2022/03/04 11:39:29;;;;;;;22.10;16.38;;;;;;;8.01;nan;99618.94;4995887;28;20640;-74
2022/03/04 11:41:54;;;;;;;19.70;14.70;;;;;;;8.08;nan;99615.94;4998268;28;20214;-74
2022/03/04 11:44:25;;;;;;;19.00;15.57;;;;;;;8.14;nan;99610.38;4996593;28;20234;-74
2022/03/04 11:47:02;;;;;;;21.17;14.50;;;;;;;8.18;nan;99614.53;4998087;28;20730;-74
2022/03/04 11:49:29;;;;;;;16.10;14.30;;;;;;;8.21;nan;99613.50;4996367;28;20210;-74
2022/03/04 11:52:20;;;;;;;17.88;13.90;;;;;;;8.27;nan;99609.72;4999805;28;20639;-74
2022/03/04 11:55:05;;;;;;;18.88;14.40;;;;;;;8.31;nan;99608.59;4996551;28;20226;-74
2022/03/04 11:57:36;;;;;;;22.25;13.82;;;;;;;8.33;nan;99597.13;4996793;28;20249;-74
2022/03/04 12:00:10;;;;;;;20.20;13.65;;;;;;;8.37;nan;99603.03;4997087;28;20199;-74
2022/03/04 12:02:38;;;;;;;18.58;13.50;;;;;;;8.40;nan;99590.69;4997799;28;20206;-74
2022/03/04 12:05:13;;;;;;;17.15;14.90;;;;;;;8.50;nan;99591.00;4997356;28;20571;-74
2022/03/04 12:07:43;;;;;;;22.45;14.68;;;;;;;8.57;nan;99587.13;5011368;28;20219;-74
2022/03/04 12:10:19;;;;;;;16.13;14.38;;;;;;;8.66;nan;99592.78;4993577;28;20747;-74
2022/03/04 12:13:06;;;;;;;20.48;14.95;;;;;;;8.70;nan;99583.81;4998495;28;20684;-74